Terminal Aerodrome Forecast
Issued by NWS Tuscon, AZ

Home | Current Version | Previous Version | Text Only | Print | Product List | Glossary On
Versions: 1 2 3 4 5 6 7 8 9 10 11 12
000
FTUS45 KTWC 281123
TAFDUG
TAF
KDUG 281123Z 2812/2912 VRB04KT P6SM SKC
     FM281800 18008KT P6SM SKC
     FM282100 25013G21KT P6SM SKC
     FM290200 29009KT P6SM SKC
     FM290500 35006KT P6SM SKC
     FM290900 VRB04KT P6SM SCT250=

USA.gov is the U.S. government's official web portal to all federal, state and local government web resources and services.